»·PEaware :: N650TB KSBA-KLAS

N650TB :: KSBA-KLAS

FLIGHT INFORMATION

Flight Status: Arrived
Operator: Privately registered:
United States
More flights under this callsign
Pilot: Nick S. (24447)
Aircraft: BEECH AIRCRAFT A90-E90 KING AIR
(BE9L)
More flights by this aircraft type
Origin: KSBA Santa Barbara Mun
United States
Destination: KLAS McCarran Intl
United States
More flights between these airports :: More routes between these airports
Route: KWANG V27 HENER V186 FIM V386 PMD V12 HEC CRESO4
File this flight plan on PilotEdge
Remarks:
Altitude:
(Current/Filed)
11,000ft
Speed:
(Current/Filed)
265kts
Departed: 03-Jan-21 07:12 PM
Arrived: 03-Jan-21 08:39 PM
Distance/Time
Traveled:
249nm/1:27
Distance/Time
To Go:
Arrived

Flight Plot

Page will automatically refresh every two minutes.

Flight plan parsing failed; only flown route is shown


Map Options




Map Legend


Flown Route
Filed Route
Departure Airport
Arrival Airport
Navaid (VOR, NDB)
Fix

Horizontal Profiles

Position Reports

Time Latitude Longitude Heading Altitude Ground
Speed
03-Jan-21 18:44 34.429656 -119.844134 330 15ft 0kts
03-Jan-21 18:45 34.429656 -119.844134 330 15ft 0kts
03-Jan-21 18:46 34.429656 -119.844134 330 15ft 0kts
03-Jan-21 18:47 34.429656 -119.844134 330 15ft 0kts
03-Jan-21 18:48 34.429656 -119.844134 330 15ft 0kts
03-Jan-21 18:48 34.429656 -119.844134 330 15ft 0kts
03-Jan-21 18:49 34.429656 -119.844134 330 15ft 0kts
03-Jan-21 18:50 34.429656 -119.844134 330 15ft 0kts
03-Jan-21 18:52 34.429656 -119.844134 330 15ft 0kts
03-Jan-21 18:52 34.429656 -119.844134 330 15ft 0kts
03-Jan-21 18:53 34.429657 -119.844134 330 15ft 0kts
03-Jan-21 18:54 34.429658 -119.844135 330 15ft 0kts
03-Jan-21 18:55 34.429660 -119.844136 330 15ft 0kts
03-Jan-21 18:56 34.429613 -119.844007 179 15ft 3kts
03-Jan-21 18:57 34.429551 -119.843992 164 15ft 0kts
03-Jan-21 18:58 34.429551 -119.843992 164 15ft 0kts
03-Jan-21 18:59 34.429550 -119.843992 164 15ft 0kts
03-Jan-21 19:00 34.429549 -119.843991 164 15ft 0kts
03-Jan-21 19:01 34.429548 -119.843991 164 15ft 0kts
03-Jan-21 19:02 34.429547 -119.843991 164 15ft 0kts
03-Jan-21 19:03 34.429801 -119.842716 63 15ft 0kts
03-Jan-21 19:04 34.429979 -119.842281 63 15ft 0kts
03-Jan-21 19:05 34.429980 -119.842279 63 15ft 0kts
03-Jan-21 19:06 34.429981 -119.842277 63 15ft 0kts
03-Jan-21 19:07 34.429982 -119.842275 63 15ft 0kts
03-Jan-21 19:08 34.429983 -119.842273 63 15ft 0kts
03-Jan-21 19:09 34.429996 -119.842242 62 15ft 2kts
03-Jan-21 19:10 34.429961 -119.841378 159 15ft 0kts
03-Jan-21 19:11 34.412094 -119.831540 157 747ft 115kts
03-Jan-21 19:12 34.377892 -119.816569 160 2276ft 141kts
03-Jan-21 19:13 34.337862 -119.799170 160 2923ft 163kts
03-Jan-21 19:14 34.291670 -119.774499 155 3156ft 197kts
03-Jan-21 19:15 34.246422 -119.747653 153 4907ft 171kts
03-Jan-21 19:16 34.205604 -119.722786 153 6760ft 154kts
03-Jan-21 19:17 34.167964 -119.699879 153 7932ft 165kts
03-Jan-21 19:18 34.123343 -119.672740 153 7922ft 190kts
03-Jan-21 19:19 34.085367 -119.633788 98 8454ft 178kts
03-Jan-21 19:20 34.105040 -119.583389 54 9436ft 163kts
03-Jan-21 19:21 34.123293 -119.534637 66 10416ft 156kts
03-Jan-21 19:22 34.141354 -119.484726 66 10931ft 177kts
03-Jan-21 19:23 34.163191 -119.422937 67 10923ft 224kts
03-Jan-21 19:24 34.188594 -119.350946 66 10918ft 238kts
03-Jan-21 19:25 34.213546 -119.280712 66 10917ft 240kts
03-Jan-21 19:26 34.239919 -119.206660 66 10917ft 241kts
03-Jan-21 19:27 34.266529 -119.131927 66 10917ft 241kts
03-Jan-21 19:28 34.293027 -119.057461 66 10917ft 241kts
03-Jan-21 19:29 34.319433 -118.983332 66 10999ft 240kts
03-Jan-21 19:30 34.345996 -118.909270 66 10999ft 240kts
03-Jan-21 19:31 34.369153 -118.833646 62 11001ft 240kts
03-Jan-21 19:32 34.399708 -118.761649 66 11000ft 240kts
03-Jan-21 19:33 34.425664 -118.687151 67 10999ft 240kts
03-Jan-21 19:34 34.451531 -118.612508 67 10999ft 240kts
03-Jan-21 19:35 34.478177 -118.538007 64 11000ft 240kts
03-Jan-21 19:36 34.505688 -118.464305 66 11000ft 240kts
03-Jan-21 19:37 34.531378 -118.389595 67 10999ft 240kts
03-Jan-21 19:38 34.556551 -118.314471 68 10999ft 240kts
03-Jan-21 19:39 34.581470 -118.239285 68 10999ft 240kts
03-Jan-21 19:40 34.606080 -118.163932 68 10999ft 240kts
03-Jan-21 19:41 34.628336 -118.088001 78 11001ft 240kts
03-Jan-21 19:42 34.637733 -118.007143 82 11000ft 240kts
03-Jan-21 19:43 34.646449 -117.926770 82 10999ft 240kts
03-Jan-21 19:44 34.651353 -117.882347 82 10999ft 240kts
03-Jan-21 19:45 34.657811 -117.824006 82 10999ft 240kts
03-Jan-21 19:46 34.666760 -117.743308 82 10999ft 240kts
03-Jan-21 19:47 34.675610 -117.662645 82 10999ft 240kts
03-Jan-21 19:48 34.684373 -117.582301 82 10999ft 240kts
03-Jan-21 19:49 34.693122 -117.501723 82 10999ft 240kts
03-Jan-21 19:50 34.701790 -117.421321 82 11000ft 240kts
03-Jan-21 19:51 34.710772 -117.340835 82 10999ft 240kts
03-Jan-21 19:52 34.719820 -117.260161 82 10999ft 240kts
03-Jan-21 19:53 34.728844 -117.179688 82 10999ft 240kts
03-Jan-21 19:54 34.737863 -117.099257 82 10999ft 240kts
03-Jan-21 19:55 34.746902 -117.018636 82 10999ft 240kts
03-Jan-21 19:56 34.755904 -116.938336 82 10999ft 240kts
03-Jan-21 19:57 34.764936 -116.857762 82 10999ft 240kts
03-Jan-21 19:58 34.773997 -116.776920 82 10999ft 240kts
03-Jan-21 19:59 34.783002 -116.696567 82 10999ft 240kts
03-Jan-21 20:00 34.792045 -116.615865 82 10999ft 240kts
03-Jan-21 20:01 34.801071 -116.535305 82 10999ft 240kts
03-Jan-21 20:02 34.811578 -116.455059 65 10994ft 240kts
03-Jan-21 20:03 34.866149 -116.410294 35 11002ft 240kts
03-Jan-21 20:04 34.913025 -116.352866 52 11000ft 240kts
03-Jan-21 20:05 34.955494 -116.289993 46 11000ft 240kts
03-Jan-21 20:06 35.000945 -116.230543 47 10999ft 240kts
03-Jan-21 20:07 35.046237 -116.169976 47 10999ft 240kts
03-Jan-21 20:08 35.091072 -116.109476 47 10999ft 240kts
03-Jan-21 20:09 35.135891 -116.048779 48 10999ft 240kts
03-Jan-21 20:10 35.174493 -115.996393 48 10999ft 240kts
03-Jan-21 20:11 35.218967 -115.935287 48 10999ft 240kts
03-Jan-21 20:12 35.263573 -115.874302 48 10999ft 240kts
03-Jan-21 20:13 35.308309 -115.813213 48 10999ft 240kts
03-Jan-21 20:14 35.352934 -115.752206 48 10999ft 240kts
03-Jan-21 20:15 35.397648 -115.690980 48 10999ft 240kts
03-Jan-21 20:16 35.442173 -115.629905 48 10999ft 240kts
03-Jan-21 20:17 35.486712 -115.568703 48 10999ft 240kts
03-Jan-21 20:18 35.531199 -115.507482 48 10863ft 240kts
03-Jan-21 20:20 35.574967 -115.447243 47 10259ft 233kts
03-Jan-21 20:21 35.627256 -115.400474 33 9238ft 232kts
03-Jan-21 20:22 35.672638 -115.363911 33 8314ft 231kts
03-Jan-21 20:23 35.726328 -115.320650 33 7224ft 229kts
03-Jan-21 20:24 35.776998 -115.279792 33 6998ft 205kts
03-Jan-21 20:25 35.823566 -115.242222 33 6998ft 196kts
03-Jan-21 20:26 35.868632 -115.205843 33 6999ft 192kts
03-Jan-21 20:27 35.913330 -115.169741 33 6999ft 190kts
03-Jan-21 20:28 35.957011 -115.134442 33 6998ft 185kts
03-Jan-21 20:29 35.999905 -115.099762 33 6999ft 183kts
03-Jan-21 20:30 36.042305 -115.065465 33 6999ft 182kts
03-Jan-21 20:31 36.084615 -115.031222 33 7000ft 182kts
03-Jan-21 20:32 36.126267 -114.997495 33 6996ft 172kts
03-Jan-21 20:33 36.168305 -114.986911 326 6791ft 173kts
03-Jan-21 20:33 36.192080 -115.028347 297 5977ft 183kts
03-Jan-21 20:35 36.180640 -115.090703 224 4602ft 191kts
03-Jan-21 20:35 36.150591 -115.129911 221 3916ft 177kts
03-Jan-21 20:37 36.113094 -115.152446 183 2632ft 102kts
03-Jan-21 20:37 36.092440 -115.160363 203 2186ft 63kts
03-Jan-21 20:38 36.084864 -115.164835 223 2186ft 10kts
03-Jan-21 20:40 36.083856 -115.166131 227 2186ft 8kts
03-Jan-21 20:40 36.082582 -115.167673 256 2186ft 11kts
03-Jan-21 20:41 36.081572 -115.169593 265 2186ft 0kts
03-Jan-21 20:42 36.081572 -115.169593 265 2186ft 0kts
03-Jan-21 20:43 36.081572 -115.169593 265 2186ft 0kts
03-Jan-21 20:44 36.081572 -115.169593 265 2186ft 0kts
03-Jan-21 20:45 36.081572 -115.169593 265 2186ft 0kts
03-Jan-21 20:46 36.081572 -115.169593 265 2186ft 0kts
03-Jan-21 20:47 36.081572 -115.169593 265 2186ft 0kts
03-Jan-21 20:48 36.081572 -115.169593 265 2186ft 0kts
03-Jan-21 20:49 36.081572 -115.169593 265 2186ft 0kts
03-Jan-21 20:50 36.081572 -115.169593 265 2186ft 0kts
03-Jan-21 20:51 36.081572 -115.169593 265 2186ft 0kts
03-Jan-21 20:52 36.081572 -115.169593 265 2186ft 0kts
03-Jan-21 20:53 36.081572 -115.169593 265 2186ft 0kts

Navigation Log

Ident Type
Flight plan parsing failed, navigation log unavailable